Angola, LA

8:57 PM CST on December 05, 2016 (GMT -0600)
Belmont | | Change Station

Elev 217 ft 30.84 °N, 91.35 °W | Updated 11 seconds ago

Rain
Rain
61.0 °F
Feels Like 61.0 °F
N
0.0
Wind Variable Wind from WSW
Gusts 0.0 mph

Today
High -- | Low -- °F
--% Chance of Precip.
Yesterday
High -- | Low -- °F
Precip. -- in
Pressure 29.67 in
Visibility 4.0 miles
Clouds Overcast 400 ft
Dew Point 60 °F
Humidity 98%
Rainfall 0.74 in
Snow Depth Not available.
6:50 AM 5:04 PM
Waxing Crescent, 37% visible
METAR KHZR 060235Z AUTO 00000KT 4SM RA OVC004 15/15 A2967 RMK AO2 P0002 T01520151
Pressure 29.67 in
Visibility 4.0 miles
Clouds Overcast 400 ft
Dew Point 60 °F
Humidity 98%
Rainfall 0.74 in
Snow Depth Not available.
6:50 AM 5:04 PM
Waxing Crescent, 37% visible
METAR KHZR 060235Z AUTO 00000KT 4SM RA OVC004 15/15 A2967 RMK AO2 P0002 T01520151

10-Day Weather Forecast

Almanac

Astronomy

Dec. 05, 2016 Rise Set
Actual Time
Civil Twilight
Nautical Twilight
Astronomical Twilight
Moon
Length of Visible Light
Length of Day
Tomorrow will be .
, % of the Moon is Illuminated

Today's Extremes

State Highs State Lows

Community

WunderPhotos

Upload Photos

1,955,908 photos uploaded!

WunderBlog® & News

Nearby

Air Quality

  Air Quality AQ Index Pollutant
Not available.

Snow Depth

Station Depth Elevation

Earthquake Activity

City Distance Mag. Time & Date
Minimum magnitude displayed is 2.5.

Coastal Water Temperatures

Place Temperature

Stations

Nearby Weather Stations

Station Location Temp. Windchill Dew Point Humidity Wind Precip. Elev Updated Type
                   

Watches & Warnings

There are currently no watches in effect.